sensor_id;sensor_type;location;lat;lon;timestamp;pressure;altitude;pressure_sealevel;temperature;humidity
55466;BME280;41329;41.594;23.810;2023-05-29T00:00:25;94899.13;;;17.05;66.77
55466;BME280;41329;41.594;23.810;2023-05-29T00:02:50;94904.66;;;17.09;66.72
55466;BME280;41329;41.594;23.810;2023-05-29T00:05:16;94890.44;;;17.00;66.48
55466;BME280;41329;41.594;23.810;2023-05-29T00:07:42;94892.91;;;16.94;66.64
55466;BME280;41329;41.594;23.810;2023-05-29T00:10:09;94894.59;;;16.88;67.11
55466;BME280;41329;41.594;23.810;2023-05-29T00:12:35;94910.50;;;16.91;67.55
55466;BME280;41329;41.594;23.810;2023-05-29T00:15:01;94895.06;;;16.83;67.81
55466;BME280;41329;41.594;23.810;2023-05-29T00:17:28;94897.44;;;16.85;68.15
55466;BME280;41329;41.594;23.810;2023-05-29T00:19:54;94884.78;;;16.77;68.17
55466;BME280;41329;41.594;23.810;2023-05-29T00:22:19;94883.47;;;16.85;68.20
55466;BME280;41329;41.594;23.810;2023-05-29T00:24:45;94883.88;;;16.83;68.25
55466;BME280;41329;41.594;23.810;2023-05-29T00:27:11;94867.63;;;16.78;68.28
55466;BME280;41329;41.594;23.810;2023-05-29T00:29:37;94879.91;;;16.84;68.10
55466;BME280;41329;41.594;23.810;2023-05-29T00:32:06;94881.16;;;16.80;67.80
55466;BME280;41329;41.594;23.810;2023-05-29T00:34:31;94879.03;;;16.61;67.79
55466;BME280;41329;41.594;23.810;2023-05-29T00:36:57;94877.88;;;16.58;67.70
55466;BME280;41329;41.594;23.810;2023-05-29T00:39:23;94877.47;;;16.60;67.96
55466;BME280;41329;41.594;23.810;2023-05-29T00:41:49;94881.88;;;16.57;68.15
55466;BME280;41329;41.594;23.810;2023-05-29T00:44:23;94883.38;;;16.65;67.81
55466;BME280;41329;41.594;23.810;2023-05-29T00:46:51;94874.06;;;16.45;67.95
55466;BME280;41329;41.594;23.810;2023-05-29T00:49:19;94891.34;;;16.33;68.34
55466;BME280;41329;41.594;23.810;2023-05-29T00:51:45;94886.44;;;16.14;68.95
55466;BME280;41329;41.594;23.810;2023-05-29T00:54:12;94867.03;;;16.04;69.24
55466;BME280;41329;41.594;23.810;2023-05-29T00:56:40;94894.75;;;16.18;69.47
55466;BME280;41329;41.594;23.810;2023-05-29T00:59:09;94881.00;;;16.04;69.91
55466;BME280;41329;41.594;23.810;2023-05-29T01:01:35;94901.97;;;16.15;69.80
55466;BME280;41329;41.594;23.810;2023-05-29T01:04:03;94898.28;;;16.22;70.22
55466;BME280;41329;41.594;23.810;2023-05-29T01:06:32;94903.94;;;16.18;70.19
55466;BME280;41329;41.594;23.810;2023-05-29T01:08:57;94893.25;;;16.13;70.19
55466;BME280;41329;41.594;23.810;2023-05-29T01:14:08;94888.16;;;16.05;70.20
55466;BME280;41329;41.594;23.810;2023-05-29T01:19:35;94857.63;;;15.91;70.32
55466;BME280;41329;41.594;23.810;2023-05-29T01:22:11;94886.16;;;16.05;70.22
55466;BME280;41329;41.594;23.810;2023-05-29T01:25:13;94884.53;;;16.04;69.64
55466;BME280;41329;41.594;23.810;2023-05-29T01:27:43;94877.03;;;16.01;69.55
55466;BME280;41329;41.594;23.810;2023-05-29T01:30:11;94870.03;;;15.86;69.62
55466;BME280;41329;41.594;23.810;2023-05-29T01:32:37;94856.63;;;15.74;69.53
55466;BME280;41329;41.594;23.810;2023-05-29T01:35:04;94871.19;;;15.89;69.61
55466;BME280;41329;41.594;23.810;2023-05-29T01:37:29;94852.72;;;15.68;69.47
55466;BME280;41329;41.594;23.810;2023-05-29T01:39:54;94868.53;;;15.78;69.86
55466;BME280;41329;41.594;23.810;2023-05-29T01:42:20;94849.50;;;15.70;70.14
55466;BME280;41329;41.594;23.810;2023-05-29T01:44:46;94854.28;;;15.69;70.14
55466;BME280;41329;41.594;23.810;2023-05-29T01:47:12;94880.78;;;15.88;70.05
55466;BME280;41329;41.594;23.810;2023-05-29T01:49:39;94865.66;;;15.85;69.79
55466;BME280;41329;41.594;23.810;2023-05-29T01:52:04;94862.94;;;15.78;69.63
55466;BME280;41329;41.594;23.810;2023-05-29T01:54:30;94861.78;;;15.76;69.63
55466;BME280;41329;41.594;23.810;2023-05-29T01:56:56;94867.78;;;15.74;69.43
55466;BME280;41329;41.594;23.810;2023-05-29T01:59:21;94872.53;;;15.77;69.66
55466;BME280;41329;41.594;23.810;2023-05-29T02:01:47;94872.53;;;15.77;69.80
55466;BME280;41329;41.594;23.810;2023-05-29T02:04:13;94860.78;;;15.59;70.42
55466;BME280;41329;41.594;23.810;2023-05-29T02:06:38;94862.72;;;15.62;70.72
55466;BME280;41329;41.594;23.810;2023-05-29T02:09:03;94871.47;;;15.64;70.34
55466;BME280;41329;41.594;23.810;2023-05-29T02:11:29;94841.78;;;15.47;70.13
55466;BME280;41329;41.594;23.810;2023-05-29T02:13:54;94879.91;;;15.57;70.54
55466;BME280;41329;41.594;23.810;2023-05-29T02:16:20;94875.66;;;15.46;70.80
55466;BME280;41329;41.594;23.810;2023-05-29T02:18:46;94891.56;;;15.49;70.88
55466;BME280;41329;41.594;23.810;2023-05-29T02:21:12;94880.94;;;15.37;71.13
55466;BME280;41329;41.594;23.810;2023-05-29T02:23:37;94886.47;;;15.40;71.58
55466;BME280;41329;41.594;23.810;2023-05-29T02:26:04;94867.81;;;15.30;71.86
55466;BME280;41329;41.594;23.810;2023-05-29T02:28:30;94851.56;;;15.22;71.79
55466;BME280;41329;41.594;23.810;2023-05-29T02:30:56;94874.56;;;15.36;71.89
55466;BME280;41329;41.594;23.810;2023-05-29T02:33:21;94862.22;;;15.37;71.87
55466;BME280;41329;41.594;23.810;2023-05-29T02:35:46;94871.34;;;15.38;71.59
55466;BME280;41329;41.594;23.810;2023-05-29T02:38:12;94872.94;;;15.39;71.39
55466;BME280;41329;41.594;23.810;2023-05-29T02:40:37;94873.34;;;15.34;71.19
55466;BME280;41329;41.594;23.810;2023-05-29T02:43:03;94848.53;;;15.06;71.73
55466;BME280;41329;41.594;23.810;2023-05-29T02:45:28;94853.69;;;15.11;71.83
55466;BME280;41329;41.594;23.810;2023-05-29T02:47:53;94852.97;;;15.00;71.91
55466;BME280;41329;41.594;23.810;2023-05-29T02:50:19;94864.88;;;15.04;72.32
55466;BME280;41329;41.594;23.810;2023-05-29T02:52:44;94850.22;;;14.96;72.14
55466;BME280;41329;41.594;23.810;2023-05-29T02:55:10;94856.56;;;15.00;72.35
55466;BME280;41329;41.594;23.810;2023-05-29T02:57:35;94860.09;;;15.04;72.42
55466;BME280;41329;41.594;23.810;2023-05-29T03:00:01;94881.75;;;14.83;72.84
55466;BME280;41329;41.594;23.810;2023-05-29T03:02:29;94889.38;;;14.75;72.86
55466;BME280;41329;41.594;23.810;2023-05-29T03:04:55;94888.22;;;14.69;72.83
55466;BME280;41329;41.594;23.810;2023-05-29T03:07:20;94899.69;;;14.78;72.75
55466;BME280;41329;41.594;23.810;2023-05-29T03:09:45;94903.06;;;14.52;73.31
55466;BME280;41329;41.594;23.810;2023-05-29T03:12:11;94892.31;;;14.51;73.65
55466;BME280;41329;41.594;23.810;2023-05-29T03:14:37;94904.63;;;14.57;73.78
55466;BME280;41329;41.594;23.810;2023-05-29T03:17:04;94893.44;;;14.60;73.96
55466;BME280;41329;41.594;23.810;2023-05-29T03:19:30;94905.31;;;14.71;73.93
55466;BME280;41329;41.594;23.810;2023-05-29T03:21:55;94902.91;;;14.73;74.04
55466;BME280;41329;41.594;23.810;2023-05-29T03:24:21;94916.84;;;14.77;74.23
55466;BME280;41329;41.594;23.810;2023-05-29T03:26:48;94901.31;;;14.76;73.99
55466;BME280;41329;41.594;23.810;2023-05-29T03:29:15;94898.56;;;14.72;73.91
55466;BME280;41329;41.594;23.810;2023-05-29T03:31:41;94926.63;;;14.95;73.88
55466;BME280;41329;41.594;23.810;2023-05-29T03:34:07;94921.03;;;14.95;73.47
55466;BME280;41329;41.594;23.810;2023-05-29T03:36:32;94935.75;;;15.03;73.36
55466;BME280;41329;41.594;23.810;2023-05-29T03:38:58;94939.28;;;15.07;73.49
55466;BME280;41329;41.594;23.810;2023-05-29T03:41:23;94946.03;;;15.09;73.49
55466;BME280;41329;41.594;23.810;2023-05-29T03:43:50;94950.38;;;15.14;73.83
55466;BME280;41329;41.594;23.810;2023-05-29T03:46:16;94939.22;;;15.14;73.84
55466;BME280;41329;41.594;23.810;2023-05-29T03:48:41;94933.28;;;15.12;73.64
55466;BME280;41329;41.594;23.810;2023-05-29T03:51:06;94933.63;;;15.14;73.21
55466;BME280;41329;41.594;23.810;2023-05-29T03:53:32;94932.03;;;15.16;73.50
55466;BME280;41329;41.594;23.810;2023-05-29T03:55:57;94945.16;;;15.23;73.55
55466;BME280;41329;41.594;23.810;2023-05-29T03:58:23;94937.19;;;15.18;73.51
55466;BME280;41329;41.594;23.810;2023-05-29T04:00:48;94940.38;;;15.16;73.62
55466;BME280;41329;41.594;23.810;2023-05-29T04:03:14;94938.75;;;15.22;73.90
55466;BME280;41329;41.594;23.810;2023-05-29T04:05:40;94939.50;;;15.30;74.00
55466;BME280;41329;41.594;23.810;2023-05-29T04:08:05;94944.22;;;15.40;74.22
55466;BME280;41329;41.594;23.810;2023-05-29T04:10:34;94943.78;;;15.45;74.34
55466;BME280;41329;41.594;23.810;2023-05-29T04:13:00;94946.63;;;15.38;74.17
55466;BME280;41329;41.594;23.810;2023-05-29T04:15:26;94953.31;;;15.47;73.72
55466;BME280;41329;41.594;23.810;2023-05-29T04:17:52;94959.66;;;15.51;73.71
55466;BME280;41329;41.594;23.810;2023-05-29T04:20:17;94965.59;;;15.53;73.71
55466;BME280;41329;41.594;23.810;2023-05-29T04:22:43;94957.22;;;15.57;73.57
55466;BME280;41329;41.594;23.810;2023-05-29T04:25:08;94951.28;;;15.51;73.41
55466;BME280;41329;41.594;23.810;2023-05-29T04:27:33;94947.25;;;15.56;73.49
55466;BME280;41329;41.594;23.810;2023-05-29T04:30:05;94949.66;;;15.54;73.59
55466;BME280;41329;41.594;23.810;2023-05-29T04:32:32;94947.28;;;15.52;73.68
55466;BME280;41329;41.594;23.810;2023-05-29T04:34:58;94957.13;;;15.64;73.86
55466;BME280;41329;41.594;23.810;2023-05-29T04:37:30;94957.47;;;15.69;74.08
55466;BME280;41329;41.594;23.810;2023-05-29T04:39:56;94958.25;;;15.73;74.04
55466;BME280;41329;41.594;23.810;2023-05-29T04:42:23;94941.97;;;15.68;73.93
55466;BME280;41329;41.594;23.810;2023-05-29T04:44:50;94924.47;;;15.64;74.17
55466;BME280;41329;41.594;23.810;2023-05-29T04:47:18;94961.28;;;15.89;74.05
55466;BME280;41329;41.594;23.810;2023-05-29T04:49:44;94957.72;;;15.85;73.85
55466;BME280;41329;41.594;23.810;2023-05-29T04:52:14;94970.81;;;15.92;73.59
55466;BME280;41329;41.594;23.810;2023-05-29T04:54:40;94974.88;;;15.84;73.89
55466;BME280;41329;41.594;23.810;2023-05-29T04:57:05;94977.22;;;15.89;73.60
55466;BME280;41329;41.594;23.810;2023-05-29T04:59:31;94988.72;;;15.94;73.78
55466;BME280;41329;41.594;23.810;2023-05-29T05:01:56;94960.13;;;15.83;74.06
55466;BME280;41329;41.594;23.810;2023-05-29T05:04:21;94981.44;;;16.04;74.20
55466;BME280;41329;41.594;23.810;2023-05-29T05:06:47;94977.78;;;16.10;74.29
55466;BME280;41329;41.594;23.810;2023-05-29T05:09:12;94956.44;;;15.93;73.89
55466;BME280;41329;41.594;23.810;2023-05-29T05:11:38;94980.53;;;16.14;73.66
55466;BME280;41329;41.594;23.810;2023-05-29T05:14:03;94976.91;;;16.17;73.43
55466;BME280;41329;41.594;23.810;2023-05-29T05:16:28;94988.41;;;16.22;73.46
55466;BME280;41329;41.594;23.810;2023-05-29T05:18:54;94976.88;;;16.20;73.41
55466;BME280;41329;41.594;23.810;2023-05-29T05:21:19;94978.91;;;16.16;73.32
55466;BME280;41329;41.594;23.810;2023-05-29T05:23:45;94968.59;;;16.13;73.21
55466;BME280;41329;41.594;23.810;2023-05-29T05:26:11;94957.91;;;16.05;73.33
55466;BME280;41329;41.594;23.810;2023-05-29T05:28:36;94973.31;;;16.16;73.07
55466;BME280;41329;41.594;23.810;2023-05-29T05:31:01;94952.66;;;16.10;73.66
55466;BME280;41329;41.594;23.810;2023-05-29T05:33:27;94975.91;;;16.34;73.77
55466;BME280;41329;41.594;23.810;2023-05-29T05:35:52;94962.84;;;16.27;73.75
55466;BME280;41329;41.594;23.810;2023-05-29T05:38:18;94988.09;;;16.50;73.61
55466;BME280;41329;41.594;23.810;2023-05-29T05:40:43;94994.44;;;16.54;73.50
55466;BME280;41329;41.594;23.810;2023-05-29T05:43:10;94996.03;;;16.55;73.24
55466;BME280;41329;41.594;23.810;2023-05-29T05:45:35;94993.56;;;16.61;72.50
55466;BME280;41329;41.594;23.810;2023-05-29T05:48:03;94979.41;;;16.45;71.84
55466;BME280;41329;41.594;23.810;2023-05-29T05:50:29;94990.47;;;16.55;71.49
55466;BME280;41329;41.594;23.810;2023-05-29T05:52:54;94992.84;;;16.53;72.04
55466;BME280;41329;41.594;23.810;2023-05-29T05:55:20;94998.84;;;16.55;72.00
55466;BME280;41329;41.594;23.810;2023-05-29T05:57:45;95003.66;;;16.51;72.71
55466;BME280;41329;41.594;23.810;2023-05-29T06:00:11;95005.66;;;16.51;72.49
55466;BME280;41329;41.594;23.810;2023-05-29T06:02:37;95011.16;;;16.58;72.64
55466;BME280;41329;41.594;23.810;2023-05-29T06:05:04;94991.66;;;16.54;72.92
55466;BME280;41329;41.594;23.810;2023-05-29T06:07:32;95002.13;;;16.47;73.71
55466;BME280;41329;41.594;23.810;2023-05-29T06:09:57;95007.97;;;16.59;73.88
55466;BME280;41329;41.594;23.810;2023-05-29T06:12:23;95006.34;;;16.62;74.03
55466;BME280;41329;41.594;23.810;2023-05-29T06:14:49;94967.38;;;16.48;74.22
55466;BME280;41329;41.594;23.810;2023-05-29T06:17:14;95000.19;;;16.74;74.47
55466;BME280;41329;41.594;23.810;2023-05-29T06:19:40;95001.34;;;16.76;74.39
55466;BME280;41329;41.594;23.810;2023-05-29T06:22:05;95011.66;;;16.83;74.36
55466;BME280;41329;41.594;23.810;2023-05-29T06:24:31;95009.69;;;16.80;74.70
55466;BME280;41329;41.594;23.810;2023-05-29T06:26:56;95017.13;;;16.90;74.67
55466;BME280;41329;41.594;23.810;2023-05-29T06:29:22;95020.66;;;16.94;74.39
55466;BME280;41329;41.594;23.810;2023-05-29T06:31:47;95020.66;;;16.94;74.63
55466;BME280;41329;41.594;23.810;2023-05-29T06:34:12;95015.75;;;16.75;74.56
55466;BME280;41329;41.594;23.810;2023-05-29T06:36:38;95025.66;;;16.79;74.50
55466;BME280;41329;41.594;23.810;2023-05-29T06:39:04;94997.09;;;16.65;74.86
55466;BME280;41329;41.594;23.810;2023-05-29T06:41:29;95025.22;;;16.84;74.95
55466;BME280;41329;41.594;23.810;2023-05-29T06:43:54;95020.81;;;16.83;75.09
55466;BME280;41329;41.594;23.810;2023-05-29T06:46:20;94993.81;;;16.73;75.57
55466;BME280;41329;41.594;23.810;2023-05-29T06:48:45;95014.72;;;16.92;75.89
55466;BME280;41329;41.594;23.810;2023-05-29T06:51:11;95011.53;;;16.90;75.89
55466;BME280;41329;41.594;23.810;2023-05-29T06:53:36;95019.03;;;16.96;76.34
55466;BME280;41329;41.594;23.810;2023-05-29T06:56:02;95008.66;;;16.97;76.11
55466;BME280;41329;41.594;23.810;2023-05-29T06:58:29;95013.16;;;16.87;75.35
55466;BME280;41329;41.594;23.810;2023-05-29T07:00:54;94989.38;;;16.76;76.09
55466;BME280;41329;41.594;23.810;2023-05-29T07:03:20;95021.13;;;16.89;76.63
55466;BME280;41329;41.594;23.810;2023-05-29T07:05:45;94999.72;;;16.79;77.00
55466;BME280;41329;41.594;23.810;2023-05-29T07:08:10;95025.09;;;16.91;77.15
55466;BME280;41329;41.594;23.810;2023-05-29T07:10:36;95022.72;;;16.90;77.13
55466;BME280;41329;41.594;23.810;2023-05-29T07:13:01;95016.06;;;16.80;77.93
55466;BME280;41329;41.594;23.810;2023-05-29T07:15:27;95019.41;;;16.68;78.27
55466;BME280;41329;41.594;23.810;2023-05-29T07:17:52;95020.38;;;16.55;79.33
55466;BME280;41329;41.594;23.810;2023-05-29T07:20:17;95032.22;;;16.66;79.40
55466;BME280;41329;41.594;23.810;2023-05-29T07:22:45;95015.34;;;16.73;79.27
55466;BME280;41329;41.594;23.810;2023-05-29T07:25:10;95019.88;;;16.93;78.54
55466;BME280;41329;41.594;23.810;2023-05-29T07:27:35;95002.31;;;16.93;77.98
55466;BME280;41329;41.594;23.810;2023-05-29T07:30:01;95007.59;;;17.14;77.78
55466;BME280;41329;41.594;23.810;2023-05-29T07:32:27;95002.75;;;17.18;77.60
55466;BME280;41329;41.594;23.810;2023-05-29T07:34:52;95010.94;;;17.32;77.73
55466;BME280;41329;41.594;23.810;2023-05-29T07:37:18;94981.78;;;17.33;77.43
55466;BME280;41329;41.594;23.810;2023-05-29T07:39:44;95017.22;;;17.66;77.02
55466;BME280;41329;41.594;23.810;2023-05-29T07:42:10;95023.94;;;17.72;77.03
55466;BME280;41329;41.594;23.810;2023-05-29T07:44:35;95014.50;;;17.86;76.82
55466;BME280;41329;41.594;23.810;2023-05-29T07:47:00;94990.16;;;17.83;76.07
55466;BME280;41329;41.594;23.810;2023-05-29T07:49:26;95017.72;;;18.07;74.50
55466;BME280;41329;41.594;23.810;2023-05-29T07:51:51;94989.28;;;18.09;74.16
55466;BME280;41329;41.594;23.810;2023-05-29T07:54:17;95013.38;;;18.26;72.22
55466;BME280;41329;41.594;23.810;2023-05-29T07:56:43;95025.78;;;18.48;71.92
55466;BME280;41329;41.594;23.810;2023-05-29T07:59:09;95004.03;;;18.36;68.25
55466;BME280;41329;41.594;23.810;2023-05-29T08:01:35;95018.81;;;18.56;69.50
55466;BME280;41329;41.594;23.810;2023-05-29T08:04:00;95015.66;;;18.73;71.03
55466;BME280;41329;41.594;23.810;2023-05-29T08:06:26;95019.78;;;18.88;71.10
55466;BME280;41329;41.594;23.810;2023-05-29T08:08:51;95010.91;;;18.90;71.79
55466;BME280;41329;41.594;23.810;2023-05-29T08:11:18;95015.66;;;18.93;71.11
55466;BME280;41329;41.594;23.810;2023-05-29T08:13:43;95013.78;;;19.06;71.21
55466;BME280;41329;41.594;23.810;2023-05-29T08:16:08;95011.25;;;19.11;70.12
55466;BME280;41329;41.594;23.810;2023-05-29T08:18:34;95008.22;;;19.22;69.03
55466;BME280;41329;41.594;23.810;2023-05-29T08:20:59;95012.09;;;19.28;67.41
55466;BME280;41329;41.594;23.810;2023-05-29T08:23:25;95016.59;;;19.41;67.89
55466;BME280;41329;41.594;23.810;2023-05-29T08:25:50;95013.81;;;19.41;66.82
55466;BME280;41329;41.594;23.810;2023-05-29T08:28:16;95019.06;;;19.55;68.10
55466;BME280;41329;41.594;23.810;2023-05-29T08:30:41;95019.19;;;19.68;67.14
55466;BME280;41329;41.594;23.810;2023-05-29T08:33:07;95003.22;;;19.65;66.71
55466;BME280;41329;41.594;23.810;2023-05-29T08:35:34;95003.16;;;19.68;66.91
55466;BME280;41329;41.594;23.810;2023-05-29T08:37:59;95007.84;;;19.39;66.44
55466;BME280;41329;41.594;23.810;2023-05-29T08:40:25;95012.13;;;19.44;66.80
55466;BME280;41329;41.594;23.810;2023-05-29T08:42:59;94984.97;;;19.41;67.11
55466;BME280;41329;41.594;23.810;2023-05-29T08:45:28;95002.88;;;19.63;67.71
55466;BME280;41329;41.594;23.810;2023-05-29T08:47:54;94983.75;;;19.58;65.73
55466;BME280;41329;41.594;23.810;2023-05-29T08:50:21;95009.09;;;19.86;66.60
55466;BME280;41329;41.594;23.810;2023-05-29T08:52:47;95011.66;;;19.97;65.59
55466;BME280;41329;41.594;23.810;2023-05-29T08:55:16;95013.81;;;20.05;65.22
55466;BME280;41329;41.594;23.810;2023-05-29T08:57:42;95003.03;;;20.20;66.17
55466;BME280;41329;41.594;23.810;2023-05-29T09:00:09;95010.31;;;20.33;64.91
55466;BME280;41329;41.594;23.810;2023-05-29T09:02:40;94999.94;;;20.30;63.24
55466;BME280;41329;41.594;23.810;2023-05-29T09:05:06;95002.97;;;20.23;63.63
55466;BME280;41329;41.594;23.810;2023-05-29T09:07:33;95011.34;;;20.39;63.89
55466;BME280;41329;41.594;23.810;2023-05-29T09:09:59;94982.88;;;20.25;63.75
55466;BME280;41329;41.594;23.810;2023-05-29T09:12:26;94986.00;;;20.27;63.30
55466;BME280;41329;41.594;23.810;2023-05-29T09:14:51;95003.81;;;20.36;63.09
55466;BME280;41329;41.594;23.810;2023-05-29T09:17:17;95010.97;;;20.53;62.64
55466;BME280;41329;41.594;23.810;2023-05-29T09:19:42;95009.88;;;20.63;63.31
55466;BME280;41329;41.594;23.810;2023-05-29T09:22:13;95010.56;;;20.67;61.56
55466;BME280;41329;41.594;23.810;2023-05-29T09:24:43;95013.63;;;20.73;60.69
55466;BME280;41329;41.594;23.810;2023-05-29T09:27:10;95007.13;;;20.76;60.43
55466;BME280;41329;41.594;23.810;2023-05-29T09:29:43;94983.72;;;20.66;59.16
55466;BME280;41329;41.594;23.810;2023-05-29T09:32:09;94996.13;;;20.81;59.13
55466;BME280;41329;41.594;23.810;2023-05-29T09:34:35;94995.06;;;20.91;59.65
55466;BME280;41329;41.594;23.810;2023-05-29T09:37:05;94991.44;;;20.91;60.56
55466;BME280;41329;41.594;23.810;2023-05-29T09:39:45;94990.38;;;21.01;60.45
55466;BME280;41329;41.594;23.810;2023-05-29T09:42:12;94975.94;;;20.99;60.51
55466;BME280;41329;41.594;23.810;2023-05-29T09:44:39;94949.25;;;20.91;60.13
55466;BME280;41329;41.594;23.810;2023-05-29T09:47:05;94968.00;;;21.10;59.62
55466;BME280;41329;41.594;23.810;2023-05-29T09:49:31;94964.72;;;21.11;59.75
55466;BME280;41329;41.594;23.810;2023-05-29T09:51:57;94961.47;;;21.13;57.78
55466;BME280;41329;41.594;23.810;2023-05-29T09:54:28;94983.31;;;21.34;57.10
55466;BME280;41329;41.594;23.810;2023-05-29T09:56:58;94962.16;;;21.29;57.16
55466;BME280;41329;41.594;23.810;2023-05-29T09:59:24;94953.03;;;21.38;58.24
55466;BME280;41329;41.594;23.810;2023-05-29T10:02:00;94961.91;;;21.49;57.41
55466;BME280;41329;41.594;23.810;2023-05-29T10:04:26;94977.69;;;21.59;57.44
55466;BME280;41329;41.594;23.810;2023-05-29T10:06:53;94963.06;;;21.64;57.16
55466;BME280;41329;41.594;23.810;2023-05-29T10:09:23;94966.31;;;21.75;54.70
55466;BME280;41329;41.594;23.810;2023-05-29T10:11:50;94963.19;;;21.73;54.85
55466;BME280;41329;41.594;23.810;2023-05-29T10:14:18;94956.06;;;21.68;53.21
55466;BME280;41329;41.594;23.810;2023-05-29T10:16:46;94959.66;;;21.69;55.09
55466;BME280;41329;41.594;23.810;2023-05-29T10:19:14;94933.44;;;21.84;55.17
55466;BME280;41329;41.594;23.810;2023-05-29T10:21:42;94952.13;;;22.25;52.79
55466;BME280;41329;41.594;23.810;2023-05-29T10:24:10;94955.34;;;22.48;53.20
55466;BME280;41329;41.594;23.810;2023-05-29T10:26:39;94956.63;;;22.69;55.66
55466;BME280;41329;41.594;23.810;2023-05-29T10:34:39;94953.91;;;22.65;48.98
55466;BME280;41329;41.594;23.810;2023-05-29T10:39:51;94957.28;;;22.73;50.57
55466;BME280;41329;41.594;23.810;2023-05-29T10:45:04;94949.84;;;22.32;50.52
55466;BME280;41329;41.594;23.810;2023-05-29T10:47:30;94950.47;;;22.15;49.73
55466;BME280;41329;41.594;23.810;2023-05-29T10:49:59;94931.97;;;21.80;49.93
55466;BME280;41329;41.594;23.810;2023-05-29T10:52:25;94940.53;;;21.76;51.44
55466;BME280;41329;41.594;23.810;2023-05-29T10:54:53;94919.03;;;21.70;52.29
55466;BME280;41329;41.594;23.810;2023-05-29T10:57:23;94931.28;;;21.88;52.66
55466;BME280;41329;41.594;23.810;2023-05-29T10:59:58;94936.78;;;21.92;52.80
55466;BME280;41329;41.594;23.810;2023-05-29T11:02:23;94935.00;;;21.85;52.11
55466;BME280;41329;41.594;23.810;2023-05-29T11:05:20;94918.88;;;21.86;53.74
55466;BME280;41329;41.594;23.810;2023-05-29T11:07:56;94915.66;;;22.09;52.69
55466;BME280;41329;41.594;23.810;2023-05-29T11:10:44;94913.84;;;22.49;52.98
55466;BME280;41329;41.594;23.810;2023-05-29T11:13:10;94865.38;;;22.41;49.72
55466;BME280;41329;41.594;23.810;2023-05-29T11:15:39;94898.41;;;22.84;51.12
55466;BME280;41329;41.594;23.810;2023-05-29T11:18:06;94879.97;;;22.92;49.91
55466;BME280;41329;41.594;23.810;2023-05-29T11:20:55;94899.31;;;23.24;50.36
55466;BME280;41329;41.594;23.810;2023-05-29T11:23:24;94850.56;;;23.02;47.76
55466;BME280;41329;41.594;23.810;2023-05-29T11:25:50;94885.31;;;23.21;48.38
55466;BME280;41329;41.594;23.810;2023-05-29T11:28:16;94875.97;;;23.02;48.28
55466;BME280;41329;41.594;23.810;2023-05-29T11:30:48;94878.22;;;22.85;47.46
55466;BME280;41329;41.594;23.810;2023-05-29T11:33:23;94882.94;;;22.88;47.20
55466;BME280;41329;41.594;23.810;2023-05-29T11:35:55;94882.66;;;22.65;48.31
55466;BME280;41329;41.594;23.810;2023-05-29T11:38:21;94891.34;;;22.79;48.88
55466;BME280;41329;41.594;23.810;2023-05-29T11:40:47;94882.34;;;22.93;47.78
55466;BME280;41329;41.594;23.810;2023-05-29T11:43:12;94883.63;;;23.23;48.18
55466;BME280;41329;41.594;23.810;2023-05-29T11:45:38;94883.09;;;23.55;47.39
55466;BME280;41329;41.594;23.810;2023-05-29T11:48:03;94871.72;;;23.77;46.46
55466;BME280;41329;41.594;23.810;2023-05-29T11:50:31;94876.19;;;24.14;44.99
55466;BME280;41329;41.594;23.810;2023-05-29T11:52:58;94864.09;;;24.40;47.11
55466;BME280;41329;41.594;23.810;2023-05-29T11:55:24;94857.63;;;24.76;45.07
55466;BME280;41329;41.594;23.810;2023-05-29T11:57:51;94823.81;;;24.81;44.99
55466;BME280;41329;41.594;23.810;2023-05-29T12:00:20;94861.47;;;25.14;41.67
55466;BME280;41329;41.594;23.810;2023-05-29T12:02:47;94858.88;;;24.84;41.34
55466;BME280;41329;41.594;23.810;2023-05-29T12:05:15;94854.19;;;24.81;42.17
55466;BME280;41329;41.594;23.810;2023-05-29T12:07:52;94850.22;;;24.78;43.52
55466;BME280;41329;41.594;23.810;2023-05-29T12:10:19;94860.72;;;24.96;43.38
55466;BME280;41329;41.594;23.810;2023-05-29T12:12:55;94851.75;;;25.06;41.13
55466;BME280;41329;41.594;23.810;2023-05-29T12:15:22;94839.47;;;25.09;40.75
55466;BME280;41329;41.594;23.810;2023-05-29T12:17:49;94832.81;;;25.30;41.96
55466;BME280;41329;41.594;23.810;2023-05-29T12:20:15;94838.16;;;25.28;39.43
55466;BME280;41329;41.594;23.810;2023-05-29T12:22:43;94860.03;;;25.19;39.39
55466;BME280;41329;41.594;23.810;2023-05-29T12:25:13;94851.31;;;24.99;39.59
55466;BME280;41329;41.594;23.810;2023-05-29T12:27:41;94844.44;;;24.82;40.58
55466;BME280;41329;41.594;23.810;2023-05-29T12:30:12;94839.13;;;24.48;39.50
55466;BME280;41329;41.594;23.810;2023-05-29T12:32:41;94835.03;;;24.49;41.17
55466;BME280;41329;41.594;23.810;2023-05-29T12:37:46;94848.00;;;23.74;48.49
55466;BME280;41329;41.594;23.810;2023-05-29T12:42:43;94861.03;;;23.81;50.06
55466;BME280;41329;41.594;23.810;2023-05-29T12:45:09;94848.56;;;23.51;50.19
55466;BME280;41329;41.594;23.810;2023-05-29T12:47:35;94872.25;;;23.14;50.87
55466;BME280;41329;41.594;23.810;2023-05-29T12:50:26;94844.03;;;22.53;50.62
55466;BME280;41329;41.594;23.810;2023-05-29T12:53:04;94846.69;;;22.13;51.67
55466;BME280;41329;41.594;23.810;2023-05-29T12:55:34;94869.53;;;21.81;54.42
55466;BME280;41329;41.594;23.810;2023-05-29T12:58:07;94871.03;;;21.61;53.95
55466;BME280;41329;41.594;23.810;2023-05-29T13:00:34;94859.59;;;21.43;56.44
55466;BME280;41329;41.594;23.810;2023-05-29T13:03:00;94847.13;;;21.19;56.35
55466;BME280;41329;41.594;23.810;2023-05-29T13:05:26;94844.31;;;21.06;56.89
55466;BME280;41329;41.594;23.810;2023-05-29T13:07:52;94838.88;;;20.87;61.03
55466;BME280;41329;41.594;23.810;2023-05-29T13:10:20;94829.41;;;20.68;59.72